Panama City, FL

2:05 AM CDT on September 03, 2014 (GMT -0500)
Apalachicola Municipal | Change Station
CLOSE
Current Station
Airport
Location: Apalachicola,
Elevation: 20 ft
Nearby Weather Stations

Elev 20 ft 29.73 °N, 85.03 °W | Updated 12 minutes ago

Partly Cloudy
Partly Cloudy
78 °F
Feels Like 78 °F
N
5
Wind Variable Wind from NE

Today
High -- | Low -- °F
--% Chance of Precip.
Yesterday
High -- | Low -- °F
Precip. -- in
6:20 AM 7:02 PM
First Quarter, 59% visible
Pressure 30.01 in
Visibility 10.0 miles
Clouds Few 2200 ft
Dew Point 75 °F
Humidity 90%
Rainfall 0.00 in
Snow Depth Not available.
UV 0 out of 12
Pollen 7.70 out of 12
Air Quality Not available.
Flu Activity Not available.
METAR KAAF 030653Z AUTO 04004KT 10SM FEW022 26/24 A3001 RMK AO2 SLP163 T02560239 $

More Conditions Fewer Conditions

Pressure 30.01 in
Visibility 10.0 miles
Clouds Few 2200 ft
Dew Point 75 °F
Humidity 90%
Rainfall 0.00 in
Snow Depth Not available.
UV 0 out of 12
Pollen 7.70 out of 12
Air Quality Not available.
Flu Activity Not available.
METAR KAAF 030653Z AUTO 04004KT 10SM FEW022 26/24 A3001 RMK AO2 SLP163 T02560239 $

More Conditions Fewer Conditions

10-Day Weather Forecast

Almanac

Astronomy

Sep. 03, 2014 Rise Set
Actual Time 6:20 AM CDT 7:02 PM CDT
Civil Twilight 5:56 AM CDT 7:27 PM CDT
Nautical Twilight 5:27 AM CDT 7:55 PM CDT
Astronomical Twilight 4:58 AM CDT 8:24 PM CDT
Moon 2:30 PM CDT 12:27 AM CDT
Length of Visible Light 13h 30m
Length of Day
12h 42m
Tomorrow will be 1m 45s shorter.
First Quarter, 59% of the Moon is Illuminated
Today
First Quarter
Sep 8
Full
Sep 15
Last Quarter
Sep 24
New
Oct 1
First Quarter

Today's Extremes

State Highs State Lows

Community

WunderPhotos

Upload Photos

1,749,888 photos uploaded!

Nearby

Snow Depth

Station Depth Elevation
No new snow has been reported.

Earthquake Activity

City Distance Mag. Time & Date
No recent earthquake activity has been reported nearby.
Minimum magnitude displayed is 2.5.

Coastal Water Temperatures

Place Temperature
Panama City, FL 87.1 °F
Panama City Beach, FL 87.1 °F
Apalachicola, FL 90.0 °F

Nearby Weather Stations